createdAt,value
2019-04-14T00:01:21.551Z,42.77
2019-04-14T00:04:00.897Z,43.73
2019-04-14T00:06:30.613Z,42.67
2019-04-14T00:08:59.314Z,46.27
2019-04-14T00:11:28.019Z,44.73
2019-04-14T00:13:56.755Z,45.73
2019-04-14T00:16:25.314Z,44.87
2019-04-14T00:18:54.002Z,45.63
2019-04-14T00:21:22.556Z,46.30
2019-04-14T00:23:52.272Z,44.07
2019-04-14T00:26:31.717Z,45.10
2019-04-14T00:29:00.356Z,44.67
2019-04-14T00:31:30.595Z,44.77
2019-04-14T00:34:00.979Z,45.83
2019-04-14T00:36:31.068Z,46.17
2019-04-14T00:38:59.494Z,46.50
2019-04-14T00:41:46.699Z,45.67
2019-04-14T00:44:14.600Z,46.67
2019-04-14T00:46:53.914Z,44.77
2019-04-14T00:49:22.371Z,45.97
2019-04-14T00:51:52.880Z,45.60
2019-04-14T00:54:21.778Z,44.83
2019-04-14T00:56:50.449Z,44.73
2019-04-14T00:59:19.998Z,44.93
2019-04-14T01:01:48.606Z,44.63
2019-04-14T01:04:17.073Z,44.73
2019-04-14T01:06:46.834Z,44.60
2019-04-14T01:09:15.593Z,46.73
2019-04-14T01:11:44.415Z,44.13
2019-04-14T01:14:12.965Z,42.37
2019-04-14T01:16:41.474Z,42.53
2019-04-14T01:19:11.197Z,42.83
2019-04-14T01:21:39.770Z,41.83
2019-04-14T01:24:09.554Z,43.00
2019-04-14T01:26:38.217Z,43.03
2019-04-14T01:29:07.917Z,41.20
2019-04-14T01:31:36.575Z,43.07
2019-04-14T01:34:06.242Z,44.20
2019-04-14T01:36:34.854Z,43.33
2019-04-14T01:39:04.990Z,42.33
2019-04-14T01:41:34.602Z,42.03
2019-04-14T01:44:04.570Z,41.23
2019-04-14T01:46:34.640Z,42.47
2019-04-14T01:49:03.302Z,41.23
2019-04-14T01:51:37.208Z,41.37
2019-04-14T01:54:10.620Z,41.23
2019-04-14T01:56:41.072Z,41.80
2019-04-14T01:59:11.504Z,42.57
2019-04-14T02:01:45.649Z,41.23
2019-04-14T02:04:14.229Z,39.83
2019-04-14T02:06:42.662Z,40.10
2019-04-14T02:09:12.110Z,42.97
2019-04-14T02:11:42.277Z,40.03
2019-04-14T02:14:10.907Z,40.60
2019-04-14T02:16:45.282Z,40.47
2019-04-14T02:19:10.902Z,41.20
2019-04-14T02:21:39.723Z,41.33
2019-04-14T02:24:09.184Z,40.33
2019-04-14T02:26:37.730Z,41.00
2019-04-14T02:29:06.199Z,40.97
2019-04-14T02:32:01.443Z,40.93
2019-04-14T02:37:05.319Z,40.43
2019-04-14T02:42:17.933Z,39.47
2019-04-14T02:44:38.084Z,41.90
2019-04-14T02:47:38.561Z,40.60
2019-04-14T02:49:38.468Z,41.33
2019-04-14T02:52:04.681Z,40.43
2019-04-14T02:54:46.699Z,41.70
2019-04-14T02:57:12.539Z,40.93
2019-04-14T02:59:35.969Z,40.90
2019-04-14T03:04:33.971Z,40.30
2019-04-14T03:07:05.383Z,40.80
2019-04-14T03:09:41.984Z,39.57
2019-04-14T03:20:05.776Z,37.23
2019-04-14T03:24:53.883Z,38.10
2019-04-14T03:27:39.920Z,38.33
2019-04-14T03:33:27.356Z,37.23
2019-04-14T03:35:50.943Z,37.73
2019-04-14T03:38:11.388Z,36.27
2019-04-14T03:40:42.905Z,37.03
2019-04-14T03:43:01.371Z,37.17
2019-04-14T03:45:36.276Z,36.40
2019-04-14T03:48:31.515Z,36.07
2019-04-14T03:50:28.631Z,36.33
2019-04-14T03:53:06.056Z,36.57
2019-04-14T03:55:23.548Z,35.17
2019-04-14T03:57:35.141Z,34.97
2019-04-14T04:00:05.327Z,34.77
2019-04-14T04:02:33.944Z,36.07
2019-04-14T04:05:02.378Z,34.37
2019-04-14T04:07:32.291Z,35.43
2019-04-14T04:10:03.128Z,33.80
2019-04-14T04:12:31.726Z,33.60
2019-04-14T04:15:00.191Z,32.70
2019-04-14T04:17:43.020Z,33.33
2019-04-14T04:20:13.638Z,30.83
2019-04-14T04:22:47.561Z,31.83
2019-04-14T04:25:33.272Z,31.60
2019-04-14T04:28:03.759Z,31.10
2019-04-14T04:30:40.487Z,30.23
2019-04-14T04:33:10.906Z,30.03
2019-04-14T04:35:41.456Z,32.20
2019-04-14T04:38:15.879Z,30.07
2019-04-14T04:40:44.527Z,29.80
2019-04-14T04:43:12.956Z,30.17
2019-04-14T04:45:41.397Z,30.47
2019-04-14T04:48:10.826Z,30.90
2019-04-14T04:50:39.459Z,30.43
2019-04-14T04:53:09.082Z,30.03
2019-04-14T04:55:37.612Z,29.67
2019-04-14T04:58:06.060Z,28.90
2019-04-14T05:00:35.272Z,29.07
2019-04-14T05:03:03.914Z,28.13
2019-04-14T05:05:51.332Z,27.10
2019-04-14T05:08:19.970Z,27.17
2019-04-14T05:10:50.308Z,29.37
2019-04-14T05:13:20.578Z,28.40
2019-04-14T05:15:51.071Z,26.93
2019-04-14T05:18:19.972Z,26.97
2019-04-14T05:20:48.831Z,26.80
2019-04-14T05:23:17.278Z,27.63
2019-04-14T05:25:45.705Z,31.53
2019-04-14T05:28:15.569Z,27.50
2019-04-14T05:30:44.151Z,27.43
2019-04-14T05:33:12.574Z,27.83
2019-04-14T05:35:42.319Z,28.07
2019-04-14T05:38:10.887Z,26.23
2019-04-14T05:40:40.721Z,28.47
2019-04-14T05:43:09.424Z,26.90
2019-04-14T05:45:37.861Z,27.50
2019-04-14T05:48:07.476Z,26.40
2019-04-14T05:50:35.993Z,27.67
2019-04-14T05:53:06.419Z,26.83
2019-04-14T05:55:35.213Z,28.40
2019-04-14T05:58:03.946Z,27.07
2019-04-14T06:00:34.133Z,26.23
2019-04-14T06:03:03.732Z,27.47
2019-04-14T06:05:32.313Z,26.47
2019-04-14T06:08:01.087Z,25.33
2019-04-14T06:10:29.990Z,25.50
2019-04-14T06:12:58.466Z,24.57
2019-04-14T06:15:26.903Z,24.37
2019-04-14T06:17:55.638Z,25.20
2019-04-14T06:20:24.111Z,25.37
2019-04-14T06:22:52.645Z,24.50
2019-04-14T06:25:21.123Z,25.10
2019-04-14T06:27:49.733Z,25.03
2019-04-14T06:30:19.951Z,24.63
2019-04-14T06:32:49.662Z,23.97
2019-04-14T06:35:36.274Z,22.87
2019-04-14T06:38:06.675Z,22.80
2019-04-14T06:40:39.621Z,21.87
2019-04-14T06:43:08.062Z,22.23
2019-04-14T06:45:36.498Z,22.23
2019-04-14T06:48:05.161Z,22.73
2019-04-14T06:50:33.627Z,21.47
2019-04-14T06:53:02.064Z,21.60
2019-04-14T06:55:30.485Z,20.73
2019-04-14T06:57:58.946Z,20.67
2019-04-14T07:00:27.376Z,21.27
2019-04-14T07:02:55.814Z,21.00
2019-04-14T07:05:24.279Z,25.57
2019-04-14T07:07:57.335Z,21.53
2019-04-14T07:10:23.330Z,19.60
2019-04-14T07:12:51.784Z,21.80
2019-04-14T07:15:20.310Z,19.27
2019-04-14T07:17:48.752Z,20.13
2019-04-14T07:20:17.193Z,20.20
2019-04-14T07:22:45.631Z,19.57
2019-04-14T07:25:14.611Z,18.90
2019-04-14T07:27:43.423Z,18.33
2019-04-14T07:30:16.287Z,18.83
2019-04-14T07:32:52.345Z,18.57
2019-04-14T07:35:38.930Z,18.10
2019-04-14T07:38:15.141Z,18.00
2019-04-14T07:40:51.170Z,18.43
2019-04-14T07:43:21.266Z,18.33
2019-04-14T07:46:06.332Z,18.00
2019-04-14T07:48:51.638Z,18.17
2019-04-14T07:51:40.240Z,17.10
2019-04-14T07:54:15.866Z,17.93
2019-04-14T07:57:04.055Z,17.37
2019-04-14T07:59:34.498Z,17.33
2019-04-14T08:02:04.577Z,17.47
2019-04-14T08:04:37.422Z,17.93
2019-04-14T08:07:05.946Z,17.63
2019-04-14T08:09:34.382Z,17.53
2019-04-14T08:12:02.903Z,17.37
2019-04-14T08:14:31.494Z,20.55
2019-04-14T08:16:59.930Z,18.10
2019-04-14T08:19:28.375Z,17.60
2019-04-14T08:21:56.857Z,18.00
2019-04-14T08:24:25.799Z,17.47
2019-04-14T08:26:54.232Z,17.10
2019-04-14T08:29:22.690Z,17.60
2019-04-14T08:31:51.556Z,17.70
2019-04-14T08:34:19.988Z,17.97
2019-04-14T08:36:48.455Z,17.37
2019-04-14T08:39:16.934Z,16.77
2019-04-14T08:41:47.343Z,16.23
2019-04-14T08:44:17.455Z,17.27
2019-04-14T08:47:03.775Z,17.30
2019-04-14T08:49:41.004Z,18.30
2019-04-14T08:52:11.074Z,17.77
2019-04-14T08:54:53.031Z,16.27
2019-04-14T08:57:23.099Z,17.33
2019-04-14T08:59:56.207Z,18.73
2019-04-14T09:02:42.763Z,18.27
2019-04-14T09:05:13.194Z,19.73
2019-04-14T09:07:43.278Z,20.43
2019-04-14T09:10:13.602Z,19.13
2019-04-14T09:12:43.975Z,18.90
2019-04-14T09:15:12.543Z,16.63
2019-04-14T09:17:41.189Z,16.53
2019-04-14T09:20:09.767Z,16.97
2019-04-14T09:22:38.462Z,16.47
2019-04-14T09:25:07.105Z,16.57
2019-04-14T09:27:35.811Z,16.00
2019-04-14T09:30:06.577Z,15.43
2019-04-14T09:32:35.046Z,15.30
2019-04-14T09:35:03.742Z,15.20
2019-04-14T09:37:32.266Z,16.23
2019-04-14T09:40:00.773Z,14.77
2019-04-14T09:42:29.618Z,16.23
2019-04-14T09:44:58.058Z,15.97
2019-04-14T09:47:26.528Z,15.80
2019-04-14T09:49:54.966Z,15.97
2019-04-14T09:52:23.394Z,16.00
2019-04-14T09:54:51.891Z,16.30
2019-04-14T09:57:20.322Z,16.60
2019-04-14T09:59:48.749Z,18.27
2019-04-14T10:02:17.886Z,17.53
2019-04-14T10:04:46.318Z,17.17
2019-04-14T10:07:14.755Z,16.90
2019-04-14T10:09:43.490Z,18.03
2019-04-14T10:12:12.001Z,17.13
2019-04-14T10:14:40.438Z,17.97
2019-04-14T10:17:09.200Z,16.83
2019-04-14T10:19:37.625Z,17.47
2019-04-14T10:22:06.059Z,18.40
2019-04-14T10:24:34.518Z,17.57
2019-04-14T10:27:03.338Z,18.93
2019-04-14T10:29:31.779Z,19.07
2019-04-14T10:32:00.262Z,20.03
2019-04-14T10:34:28.697Z,21.07
2019-04-14T10:36:57.461Z,22.10
2019-04-14T10:39:25.935Z,22.67
2019-04-14T10:41:54.694Z,22.20
2019-04-14T10:44:23.128Z,23.60
2019-04-14T10:46:51.682Z,22.70
2019-04-14T10:49:20.186Z,22.23
2019-04-14T10:51:48.911Z,22.37
2019-04-14T10:54:17.555Z,23.40
2019-04-14T10:56:45.998Z,23.07
2019-04-14T10:59:14.493Z,24.07
2019-04-14T11:01:43.300Z,25.23
2019-04-14T11:04:11.781Z,26.37
2019-04-14T11:06:41.859Z,25.77
2019-04-14T11:09:14.621Z,26.23
2019-04-14T11:11:43.301Z,28.10
2019-04-14T11:14:11.818Z,27.40
2019-04-14T11:16:40.358Z,27.53
2019-04-14T11:19:09.222Z,29.10
2019-04-14T11:21:42.861Z,29.07
2019-04-14T11:24:08.098Z,26.77
2019-04-14T11:26:36.822Z,27.60
2019-04-14T11:29:05.424Z,26.90
2019-04-14T11:31:52.468Z,27.20
2019-04-14T11:34:25.425Z,27.37
2019-04-14T11:36:58.699Z,29.80
2019-04-14T11:39:27.513Z,29.37
2019-04-14T11:41:55.945Z,29.77
2019-04-14T11:44:24.556Z,32.20
2019-04-14T11:46:53.064Z,31.40
2019-04-14T11:49:21.594Z,32.33
2019-04-14T11:51:55.569Z,31.17
2019-04-14T11:54:20.297Z,31.33
2019-04-14T11:56:49.103Z,30.13
2019-04-14T11:59:19.268Z,31.20
2019-04-14T12:01:49.337Z,33.37
2019-04-14T12:04:34.554Z,30.97
2019-04-14T12:07:19.882Z,31.93
2019-04-14T12:09:55.576Z,31.20
2019-04-14T12:12:24.547Z,31.67
2019-04-14T12:14:53.374Z,31.97
2019-04-14T12:17:21.838Z,31.23
2019-04-14T12:19:50.263Z,33.67
2019-04-14T12:22:18.698Z,33.63
2019-04-14T12:24:47.503Z,34.03
2019-04-14T12:27:15.937Z,32.07
2019-04-14T12:29:45.676Z,33.53
2019-04-14T12:32:15.095Z,33.50
2019-04-14T12:34:43.647Z,34.37
2019-04-14T12:37:12.167Z,34.00
2019-04-14T12:39:40.634Z,33.07
2019-04-14T12:42:10.784Z,32.50
2019-04-14T12:44:43.488Z,31.73
2019-04-14T12:47:13.591Z,30.37
2019-04-14T12:50:00.240Z,30.97
2019-04-14T12:52:29.675Z,30.37
2019-04-14T12:54:58.775Z,31.43
2019-04-14T12:57:34.524Z,30.47
2019-04-14T13:00:04.730Z,31.30
2019-04-14T13:02:34.804Z,27.57
2019-04-14T13:05:03.528Z,27.83
2019-04-14T13:07:31.967Z,28.73
2019-04-14T13:10:00.658Z,27.67
2019-04-14T13:12:29.122Z,28.23
2019-04-14T13:14:57.855Z,28.37
2019-04-14T13:17:26.628Z,26.87
2019-04-14T13:19:55.082Z,26.53
2019-04-14T13:22:33.393Z,26.17
2019-04-14T13:24:53.958Z,25.10
2019-04-14T13:27:23.309Z,24.00
2019-04-14T13:29:51.934Z,24.23
2019-04-14T13:32:20.371Z,24.77
2019-04-14T13:34:48.822Z,23.13
2019-04-14T13:37:17.446Z,22.37
2019-04-14T13:39:45.884Z,22.23
2019-04-14T13:42:14.406Z,23.80
2019-04-14T13:44:42.844Z,21.37
2019-04-14T13:47:11.287Z,20.20
2019-04-14T13:49:39.758Z,21.93
2019-04-14T13:52:08.190Z,21.40
2019-04-14T13:54:36.707Z,20.73
2019-04-14T13:57:05.246Z,20.27
2019-04-14T13:59:33.725Z,20.83
2019-04-14T14:02:02.230Z,20.33
2019-04-14T14:04:31.074Z,19.23
2019-04-14T14:06:59.510Z,18.97
2019-04-14T14:09:27.945Z,19.80
2019-04-14T14:12:07.290Z,17.90
2019-04-14T14:14:37.391Z,19.13
2019-04-14T14:17:07.463Z,19.77
2019-04-14T14:19:37.573Z,18.83
2019-04-14T14:22:17.164Z,18.20
2019-04-14T14:24:47.770Z,18.37
2019-04-14T14:27:16.194Z,18.50
2019-04-14T14:29:45.653Z,18.23
2019-04-14T14:32:16.091Z,17.43
2019-04-14T14:34:46.276Z,18.03
2019-04-14T14:37:14.836Z,18.07
2019-04-14T14:39:43.776Z,18.30
2019-04-14T14:42:12.214Z,18.43
2019-04-14T14:44:42.293Z,17.50
2019-04-14T14:47:24.754Z,17.57
2019-04-14T14:50:01.396Z,17.33
2019-04-14T14:52:30.984Z,16.70
2019-04-14T14:54:59.418Z,17.37
2019-04-14T14:57:27.851Z,17.87
2019-04-14T14:59:56.748Z,18.23
2019-04-14T15:02:25.534Z,18.73
2019-04-14T15:04:53.967Z,17.23
2019-04-14T15:07:22.489Z,18.80
2019-04-14T15:09:50.941Z,18.23
2019-04-14T15:12:19.481Z,18.70
2019-04-14T15:14:48.397Z,18.33
2019-04-14T15:17:17.397Z,19.70
2019-04-14T15:19:46.451Z,18.70
2019-04-14T15:22:15.010Z,18.90
2019-04-14T15:24:43.508Z,19.47
2019-04-14T15:27:12.053Z,21.03
2019-04-14T15:29:40.856Z,19.60
2019-04-14T15:32:09.611Z,19.13
2019-04-14T15:34:38.064Z,18.93
2019-04-14T15:37:07.282Z,19.27
2019-04-14T15:39:37.627Z,19.47
2019-04-14T15:42:06.049Z,19.53
2019-04-14T15:44:34.514Z,20.00
2019-04-14T15:47:02.952Z,19.10
2019-04-14T15:49:31.401Z,18.40
2019-04-14T15:52:00.011Z,18.37
2019-04-14T15:54:28.442Z,17.80
2019-04-14T15:57:01.071Z,17.17
2019-04-14T15:59:33.982Z,18.47
2019-04-14T16:02:04.056Z,16.73
2019-04-14T16:04:34.459Z,17.33
2019-04-14T16:07:04.566Z,17.90
2019-04-14T16:09:34.640Z,17.90
2019-04-14T16:12:04.714Z,18.30
2019-04-14T16:14:34.826Z,18.40
2019-04-14T16:17:04.892Z,18.23
2019-04-14T16:19:50.031Z,17.93
2019-04-14T16:22:18.468Z,19.37
2019-04-14T16:24:46.977Z,19.53
2019-04-14T16:27:19.619Z,19.87
2019-04-14T16:29:59.199Z,19.47
2019-04-14T16:35:21.874Z,20.10
2019-04-14T16:37:50.314Z,17.90
2019-04-14T16:40:18.802Z,17.73
2019-04-14T16:42:47.436Z,18.17
2019-04-14T16:45:16.103Z,19.67
2019-04-14T16:47:44.551Z,19.40
2019-04-14T16:50:13.660Z,19.20
2019-04-14T16:52:46.450Z,19.30
2019-04-14T16:55:16.531Z,18.70
2019-04-14T16:58:03.119Z,19.23
2019-04-14T17:00:33.256Z,19.77
2019-04-14T17:03:01.687Z,20.27
2019-04-14T17:05:30.159Z,20.27
2019-04-14T17:07:58.607Z,19.60
2019-04-14T17:10:27.030Z,19.73
2019-04-14T17:12:55.910Z,19.97
2019-04-14T17:15:42.799Z,20.67
2019-04-14T17:18:13.114Z,20.97
2019-04-14T17:20:43.526Z,21.40
2019-04-14T17:23:28.862Z,22.20
2019-04-14T17:25:58.930Z,21.60
2019-04-14T17:28:29.007Z,23.47
2019-04-14T17:30:59.132Z,23.50
2019-04-14T17:33:35.091Z,21.57
2019-04-14T17:36:20.199Z,21.00
2019-04-14T17:39:06.578Z,22.10
2019-04-14T17:41:36.770Z,22.17
2019-04-14T17:44:12.877Z,21.40
2019-04-14T17:47:01.710Z,20.17
2019-04-14T17:49:31.777Z,21.47
2019-04-14T17:52:18.444Z,20.20
2019-04-14T17:54:51.759Z,20.73
2019-04-14T17:57:22.155Z,20.33
2019-04-14T17:59:55.093Z,21.10
2019-04-14T18:02:27.578Z,21.80
2019-04-14T18:05:00.586Z,20.63
2019-04-14T18:07:30.657Z,20.57
2019-04-14T18:10:06.577Z,20.03
2019-04-14T18:12:36.656Z,20.93
2019-04-14T18:15:11.870Z,19.27
2019-04-14T18:17:48.161Z,18.70
2019-04-14T18:20:20.778Z,18.33
2019-04-14T18:22:49.214Z,19.60
2019-04-14T18:25:17.681Z,20.87
2019-04-14T18:28:04.455Z,20.33
2019-04-14T18:30:34.553Z,19.07
2019-04-14T18:33:04.627Z,19.77
2019-04-14T18:35:47.053Z,19.57
2019-04-14T18:38:29.187Z,19.70
2019-04-14T18:40:59.303Z,20.00
2019-04-14T18:43:29.374Z,20.30
2019-04-14T18:46:08.683Z,21.37
2019-04-14T18:48:38.752Z,20.50
2019-04-14T18:51:17.887Z,21.60
2019-04-14T18:53:53.946Z,21.17
2019-04-14T18:56:33.423Z,21.23
2019-04-14T18:59:03.499Z,21.00
2019-04-14T19:01:33.870Z,20.57
2019-04-14T19:04:02.597Z,20.73
2019-04-14T19:06:31.052Z,20.27
2019-04-14T19:08:59.478Z,20.77
2019-04-14T19:11:45.825Z,19.57
2019-04-14T19:14:16.250Z,19.73
2019-04-14T19:16:55.362Z,19.83
2019-04-14T19:19:24.791Z,19.67
2019-04-14T19:21:53.579Z,19.63
2019-04-14T19:24:22.219Z,20.37
2019-04-14T19:26:50.657Z,20.43
2019-04-14T19:29:19.092Z,20.50
2019-04-14T19:31:47.770Z,20.17
2019-04-14T19:34:16.202Z,18.50
2019-04-14T19:36:44.655Z,18.77
2019-04-14T19:39:13.128Z,18.97
2019-04-14T19:41:41.625Z,19.37
2019-04-14T19:44:10.069Z,18.90
2019-04-14T19:46:39.554Z,19.43
2019-04-14T19:49:07.986Z,19.87
2019-04-14T19:51:36.428Z,19.83
2019-04-14T19:54:04.955Z,20.57
2019-04-14T19:56:33.380Z,20.37
2019-04-14T19:59:02.294Z,19.60
2019-04-14T20:01:30.758Z,19.23
2019-04-14T20:03:59.581Z,19.67
2019-04-14T20:06:28.024Z,20.63
2019-04-14T20:12:12.581Z,21.93
2019-04-14T20:14:41.014Z,20.40
2019-04-14T21:11:28.029Z,20.70
2019-04-14T21:14:14.686Z,21.43
2019-04-14T21:16:47.682Z,19.83
2019-04-14T21:19:26.398Z,20.87
2019-04-14T21:22:05.231Z,20.60
2019-04-14T21:24:44.502Z,19.93
2019-04-14T21:27:17.483Z,20.57
2019-04-14T21:29:50.118Z,19.93
2019-04-14T21:32:20.185Z,20.83
2019-04-14T21:34:50.262Z,20.50
2019-04-14T21:37:35.714Z,20.77
2019-04-14T21:40:10.791Z,20.27
2019-04-14T21:42:40.279Z,20.80
2019-04-14T21:45:09.158Z,21.80
2019-04-14T21:47:37.585Z,21.40
2019-04-14T21:50:06.979Z,21.17
2019-04-14T21:52:37.055Z,20.63
2019-04-14T21:55:06.234Z,20.83
2019-04-14T21:57:36.345Z,21.90
2019-04-14T22:00:18.330Z,21.13
2019-04-14T22:03:00.691Z,20.60
2019-04-14T22:05:43.089Z,21.20
2019-04-14T22:08:13.271Z,22.27
2019-04-14T22:10:43.348Z,21.30
2019-04-14T22:13:11.848Z,23.00
2019-04-14T22:15:40.371Z,22.67
2019-04-14T22:18:08.802Z,22.13
2019-04-14T22:20:37.366Z,22.40
2019-04-14T22:23:07.662Z,21.17
2019-04-14T22:25:36.087Z,22.47
2019-04-14T22:28:04.703Z,21.40
2019-04-14T22:30:33.310Z,23.17
2019-04-14T22:33:01.754Z,22.90
2019-04-14T22:35:30.538Z,23.40
2019-04-14T22:37:59.176Z,21.47
2019-04-14T22:40:27.675Z,22.60
2019-04-14T22:42:56.810Z,22.03
2019-04-14T22:45:25.268Z,22.03
2019-04-14T22:47:53.702Z,23.43
2019-04-14T22:50:22.241Z,21.80
2019-04-14T22:52:50.709Z,22.43
2019-04-14T22:55:19.143Z,23.50
2019-04-14T22:57:47.646Z,23.40
2019-04-14T23:00:28.616Z,21.17
2019-04-14T23:03:04.687Z,24.13
2019-04-14T23:05:47.083Z,23.23
2019-04-14T23:08:26.214Z,22.70
2019-04-14T23:10:56.454Z,22.50
2019-04-14T23:13:29.213Z,22.00
2019-04-14T23:16:14.478Z,22.13
2019-04-14T23:18:44.554Z,23.23
2019-04-14T23:21:24.015Z,22.93
2019-04-14T23:24:02.779Z,21.97
2019-04-14T23:26:31.255Z,21.63
2019-04-14T23:29:00.011Z,23.40
2019-04-14T23:31:28.443Z,22.20
2019-04-14T23:33:56.906Z,21.67
2019-04-14T23:36:25.347Z,23.57
2019-04-14T23:38:53.777Z,23.30
2019-04-14T23:41:22.234Z,23.43
2019-04-14T23:43:50.670Z,23.13
2019-04-14T23:46:19.107Z,22.73
2019-04-14T23:48:47.739Z,22.70
2019-04-14T23:51:16.175Z,22.30
2019-04-14T23:53:44.602Z,22.47
2019-04-14T23:56:13.184Z,22.43
2019-04-14T23:58:41.612Z,23.17
